Time;durP1;ratioP1;P1;durP2;ratioP2;P2;SDS_P1;SDS_P2;PMS_P1;PMS_P2;Temp;Humidity;BMP_temperature;BMP_pressure;BME280_temperature;BME280_humidity;BME280_pressure;Samples;Min_cycle;Max_cycle;Signal;HPM_P1;HPM_P2
2023/05/19 00:00:18;;;;;;;5.27;2.90;;;19.50;51.60;;;;;;5067044;28;20208;-43
2023/05/19 00:03:02;;;;;;;3.63;2.53;;;19.50;51.60;;;;;;5077735;28;20189;-44
2023/05/19 00:05:35;;;;;;;4.57;2.47;;;19.50;51.60;;;;;;5078084;28;20241;-43
2023/05/19 00:08:12;;;;;;;4.60;3.00;;;19.50;51.60;;;;;;5072142;28;20273;-43
2023/05/19 00:10:48;;;;;;;4.63;2.97;;;19.50;51.60;;;;;;5083649;28;20201;-43
2023/05/19 00:13:20;;;;;;;3.30;2.60;;;19.50;51.60;;;;;;5083390;28;20205;-43
2023/05/19 00:15:49;;;;;;;4.13;2.60;;;19.40;51.60;;;;;;5077031;28;20209;-43
2023/05/19 00:18:22;;;;;;;3.90;2.60;;;19.50;51.70;;;;;;5079216;28;20208;-43
2023/05/19 00:20:51;;;;;;;2.93;2.40;;;19.40;51.70;;;;;;5075971;28;20228;-43
2023/05/19 00:23:23;;;;;;;3.97;2.70;;;19.40;51.70;;;;;;5076367;28;20741;-43
2023/05/19 00:25:56;;;;;;;4.47;2.60;;;19.40;51.70;;;;;;5070267;28;20201;-43
2023/05/19 00:28:25;;;;;;;4.27;2.57;;;19.40;51.80;;;;;;5067674;28;20216;-43
2023/05/19 00:30:56;;;;;;;4.70;2.80;;;19.30;51.80;;;;;;5055674;28;20193;-43
2023/05/19 00:33:28;;;;;;;3.33;2.70;;;19.40;51.80;;;;;;5060216;28;20210;-43
2023/05/19 00:36:02;;;;;;;3.53;2.17;;;19.40;51.90;;;;;;5060490;28;20213;-43
2023/05/19 00:38:35;;;;;;;4.70;2.50;;;19.40;51.90;;;;;;5048184;28;20201;-43
2023/05/19 00:41:18;;;;;;;3.90;2.50;;;19.40;51.90;;;;;;5041225;28;20239;-43
2023/05/19 00:44:00;;;;;;;3.43;2.57;;;19.30;51.90;;;;;;5051343;28;20185;-43
2023/05/19 00:46:38;;;;;;;2.60;2.40;;;19.40;52.00;;;;;;5062211;28;20208;-43
2023/05/19 00:49:10;;;;;;;4.90;2.63;;;19.30;51.90;;;;;;5052633;28;20201;-43
2023/05/19 00:51:50;;;;;;;3.53;2.60;;;19.40;51.90;;;;;;5068442;28;20190;-43
2023/05/19 00:54:20;;;;;;;3.03;2.23;;;19.30;51.90;;;;;;5066667;28;20614;-43
2023/05/19 00:56:50;;;;;;;3.40;2.50;;;19.30;52.00;;;;;;5066012;28;20233;-43
2023/05/19 00:59:21;;;;;;;6.33;2.40;;;19.30;52.00;;;;;;5069271;28;20206;-43
2023/05/19 01:01:50;;;;;;;3.10;2.20;;;19.30;52.00;;;;;;5072235;28;20197;-43
2023/05/19 01:04:20;;;;;;;3.80;2.10;;;19.30;52.00;;;;;;5063614;28;20210;-43
2023/05/19 01:06:53;;;;;;;3.97;2.30;;;19.30;52.10;;;;;;5023000;28;20202;-43
2023/05/19 01:09:25;;;;;;;3.90;2.13;;;19.30;52.10;;;;;;5071213;28;20228;-44
2023/05/19 01:11:56;;;;;;;3.03;2.47;;;19.20;52.00;;;;;;5071706;28;20243;-43
2023/05/19 01:14:32;;;;;;;3.57;2.23;;;19.30;52.00;;;;;;5070295;28;20229;-43
2023/05/19 01:17:36;;;;;;;2.37;2.10;;;19.30;52.00;;;;;;5059386;28;20248;-43
2023/05/19 01:20:20;;;;;;;3.23;2.27;;;19.30;52.00;;;;;;5060209;28;20274;-43
2023/05/19 01:23:22;;;;;;;2.57;2.10;;;19.20;52.00;;;;;;5072913;28;20208;-43
2023/05/19 01:26:26;;;;;;;2.23;2.13;;;19.20;52.10;;;;;;5072527;28;20201;-43
2023/05/19 01:29:30;;;;;;;3.00;2.17;;;19.20;52.00;;;;;;5075104;28;20236;-44
2023/05/19 01:32:03;;;;;;;2.57;2.00;;;19.20;52.00;;;;;;5057682;28;20197;-42
2023/05/19 01:34:43;;;;;;;3.00;1.90;;;19.20;52.10;;;;;;5056106;28;20197;-43
2023/05/19 01:37:17;;;;;;;2.90;2.00;;;19.20;52.10;;;;;;5072252;28;20224;-43
2023/05/19 01:39:48;;;;;;;4.10;2.00;;;19.20;52.10;;;;;;5048506;28;20186;-43
2023/05/19 01:42:28;;;;;;;2.17;1.93;;;19.20;52.10;;;;;;5066666;28;20208;-43
2023/05/19 01:44:58;;;;;;;2.60;1.97;;;19.20;52.10;;;;;;5057706;28;20619;-43
2023/05/19 01:47:37;;;;;;;6.10;1.93;;;19.20;52.10;;;;;;5074662;28;20282;-43
2023/05/19 01:50:09;;;;;;;5.10;2.03;;;19.10;52.10;;;;;;5069932;28;20190;-43
2023/05/19 01:52:40;;;;;;;2.77;1.90;;;19.20;52.20;;;;;;5071961;28;20198;-43
2023/05/19 01:55:11;;;;;;;3.27;2.20;;;19.20;52.20;;;;;;5055242;28;20214;-43
2023/05/19 01:58:06;;;;;;;2.73;2.00;;;19.20;52.20;;;;;;5056617;28;20267;-43
2023/05/19 02:00:45;;;;;;;2.87;2.10;;;19.10;52.20;;;;;;5071595;28;20217;-43
2023/05/19 02:03:28;;;;;;;3.00;1.80;;;19.20;52.20;;;;;;5080302;28;20200;-43
2023/05/19 02:06:41;;;;;;;3.77;1.97;;;19.20;52.20;;;;;;5040306;28;20594;-43
2023/05/19 02:09:22;;;;;;;3.47;2.07;;;19.10;52.20;;;;;;5057630;28;20218;-43
2023/05/19 02:12:19;;;;;;;3.23;1.90;;;19.10;52.20;;;;;;5052965;28;20244;-43
2023/05/19 02:15:03;;;;;;;2.00;1.80;;;19.10;52.20;;;;;;5054556;28;20251;-43
2023/05/19 02:17:41;;;;;;;2.90;2.07;;;19.10;52.30;;;;;;5071204;28;20576;-43
2023/05/19 02:20:11;;;;;;;2.50;1.77;;;19.10;52.30;;;;;;5067008;28;20676;-43
2023/05/19 02:22:48;;;;;;;2.20;1.83;;;19.10;52.30;;;;;;5055124;28;20186;-43
2023/05/19 02:25:20;;;;;;;3.43;2.03;;;19.10;52.30;;;;;;5062706;28;20200;-43
2023/05/19 02:27:51;;;;;;;2.57;1.90;;;19.10;52.40;;;;;;5071645;28;20194;-43
2023/05/19 02:30:20;;;;;;;2.10;1.67;;;19.10;52.30;;;;;;5050637;28;20259;-43
2023/05/19 02:32:49;;;;;;;2.17;1.97;;;19.10;52.40;;;;;;5069044;28;20224;-43
2023/05/19 02:35:21;;;;;;;2.47;1.90;;;19.10;52.30;;;;;;5071503;28;20237;-43
2023/05/19 02:37:54;;;;;;;2.87;1.90;;;19.10;52.40;;;;;;5068495;28;20197;-43
2023/05/19 02:40:38;;;;;;;3.23;1.70;;;19.10;52.30;;;;;;5067755;28;20275;-43
2023/05/19 02:43:05;;;;;;;3.23;1.87;;;19.00;52.30;;;;;;5060603;28;20210;-43
2023/05/19 02:45:39;;;;;;;2.47;1.83;;;19.00;52.40;;;;;;5068550;28;20228;-43
2023/05/19 02:48:10;;;;;;;2.73;1.83;;;19.00;52.40;;;;;;5068917;28;20663;-43
2023/05/19 02:50:41;;;;;;;2.73;1.90;;;19.00;52.40;;;;;;5053505;28;20193;-43
2023/05/19 02:53:17;;;;;;;2.00;1.60;;;19.00;52.40;;;;;;5071352;28;20208;-43
2023/05/19 02:55:47;;;;;;;2.53;1.73;;;19.00;52.40;;;;;;5070552;28;20217;-43
2023/05/19 02:58:19;;;;;;;2.13;1.63;;;19.00;52.40;;;;;;5066293;28;20449;-43
2023/05/19 03:00:50;;;;;;;2.83;2.00;;;19.00;52.40;;;;;;5069253;28;20274;-43
2023/05/19 03:03:22;;;;;;;2.77;1.90;;;19.00;52.40;;;;;;5070775;28;20256;-43
2023/05/19 03:05:52;;;;;;;2.33;1.80;;;19.00;52.40;;;;;;5070024;28;20197;-44
2023/05/19 03:08:35;;;;;;;1.97;1.70;;;19.00;52.40;;;;;;5066931;28;20609;-43
2023/05/19 03:11:09;;;;;;;2.47;1.80;;;19.00;52.50;;;;;;5070345;28;20211;-43
2023/05/19 03:13:44;;;;;;;2.20;1.57;;;19.00;52.40;;;;;;5070399;28;20197;-43
2023/05/19 03:16:14;;;;;;;2.53;1.87;;;19.00;52.40;;;;;;5067821;28;20217;-43
2023/05/19 03:18:46;;;;;;;2.77;1.97;;;19.00;52.40;;;;;;5070498;28;20194;-43
2023/05/19 03:21:19;;;;;;;2.30;1.70;;;18.90;52.40;;;;;;5068138;28;20236;-43
2023/05/19 03:23:49;;;;;;;2.73;1.77;;;18.90;52.50;;;;;;5070061;28;20194;-44
2023/05/19 03:26:18;;;;;;;2.63;1.60;;;18.90;52.50;;;;;;5046381;28;20201;-43
2023/05/19 03:28:48;;;;;;;2.70;1.77;;;18.90;52.40;;;;;;5068031;28;20252;-43
2023/05/19 03:31:20;;;;;;;3.50;1.80;;;18.90;52.50;;;;;;5050219;28;20190;-43
2023/05/19 03:33:58;;;;;;;1.80;1.70;;;18.90;53.10;;;;;;5046706;28;20214;-43
2023/05/19 03:36:31;;;;;;;2.37;1.70;;;18.90;52.50;;;;;;5063117;28;20229;-43
2023/05/19 03:39:02;;;;;;;2.33;1.90;;;18.90;52.50;;;;;;5046393;28;20206;-43
2023/05/19 03:41:31;;;;;;;1.77;1.67;;;18.90;53.10;;;;;;5032026;28;20206;-43
2023/05/19 03:44:03;;;;;;;3.00;2.00;;;18.90;52.50;;;;;;5047496;28;20272;-43
2023/05/19 03:46:35;;;;;;;2.20;1.90;;;18.90;52.60;;;;;;5059092;28;20275;-43
2023/05/19 03:49:06;;;;;;;2.30;1.73;;;18.90;52.50;;;;;;5051752;28;20217;-43
2023/05/19 03:51:38;;;;;;;2.37;1.70;;;18.90;52.50;;;;;;5047170;28;20226;-43
2023/05/19 03:54:13;;;;;;;2.33;1.80;;;18.90;52.50;;;;;;5047472;28;20225;-43
2023/05/19 03:56:41;;;;;;;2.30;1.60;;;18.90;52.60;;;;;;5056456;28;20241;-44
2023/05/19 03:59:11;;;;;;;2.43;1.67;;;18.90;52.60;;;;;;5030940;28;20194;-43
2023/05/19 04:01:39;;;;;;;2.13;1.63;;;18.90;52.70;;;;;;5048568;28;20226;-44
2023/05/19 04:04:08;;;;;;;2.80;1.90;;;18.80;52.60;;;;;;5048282;28;20229;-43
2023/05/19 04:06:39;;;;;;;2.10;1.77;;;18.90;52.70;;;;;;5022428;28;20189;-44
2023/05/19 04:09:16;;;;;;;3.77;2.30;;;18.80;52.70;;;;;;5048611;28;20555;-44
2023/05/19 04:11:49;;;;;;;2.03;1.63;;;18.80;52.70;;;;;;5047544;28;20186;-44
2023/05/19 04:14:22;;;;;;;2.50;1.73;;;18.90;52.80;;;;;;5044854;28;20548;-44
2023/05/19 04:16:53;;;;;;;2.67;1.93;;;18.80;52.70;;;;;;5050267;28;20214;-44
2023/05/19 04:19:25;;;;;;;2.60;2.00;;;18.80;52.70;;;;;;5048985;28;20201;-44
2023/05/19 04:21:55;;;;;;;2.73;2.00;;;18.80;52.80;;;;;;5046419;28;20214;-43
2023/05/19 04:24:25;;;;;;;2.60;1.77;;;18.80;52.80;;;;;;5048281;28;20210;-43
2023/05/19 04:26:55;;;;;;;3.30;2.20;;;18.80;52.80;;;;;;5048984;28;20190;-44
2023/05/19 04:29:25;;;;;;;2.60;1.80;;;18.80;52.90;;;;;;5040223;28;20233;-44
2023/05/19 04:31:56;;;;;;;2.73;1.90;;;18.80;52.80;;;;;;5068633;28;20198;-43
2023/05/19 04:34:44;;;;;;;2.20;1.63;;;18.80;52.80;;;;;;5069399;28;20373;-43
2023/05/19 04:37:25;;;;;;;2.47;1.97;;;18.80;52.80;;;;;;5068744;28;20245;-43
2023/05/19 04:39:54;;;;;;;3.57;1.80;;;18.80;52.80;;;;;;5056663;28;20202;-43
2023/05/19 04:42:29;;;;;;;3.67;2.03;;;18.80;52.90;;;;;;5067329;28;20186;-43
2023/05/19 04:44:57;;;;;;;3.77;1.80;;;18.80;52.90;;;;;;5066683;28;20214;-44
2023/05/19 04:47:29;;;;;;;1.97;1.77;;;18.80;52.90;;;;;;5065543;28;20233;-44
2023/05/19 04:50:01;;;;;;;3.10;1.80;;;18.80;52.90;;;;;;5067636;28;20198;-44
2023/05/19 04:52:32;;;;;;;2.97;1.83;;;18.80;52.90;;;;;;5051772;28;20210;-43
2023/05/19 04:55:01;;;;;;;2.77;1.97;;;18.80;52.90;;;;;;5051094;28;20200;-43
2023/05/19 04:57:28;;;;;;;2.07;1.70;;;18.80;52.90;;;;;;5066689;28;20237;-45
2023/05/19 04:59:59;;;;;;;3.57;1.93;;;18.80;52.90;;;;;;5066373;28;20522;-44
2023/05/19 05:02:27;;;;;;;2.47;1.73;;;18.80;52.90;;;;;;5063213;28;20217;-44
2023/05/19 05:04:58;;;;;;;2.53;2.00;;;18.70;52.90;;;;;;5051420;28;20185;-44
2023/05/19 05:07:36;;;;;;;3.30;2.10;;;18.80;53.00;;;;;;5051973;28;20193;-44
2023/05/19 05:10:08;;;;;;;2.90;1.73;;;18.70;52.90;;;;;;5063811;28;20651;-43
2023/05/19 05:12:41;;;;;;;2.37;1.40;;;18.70;52.90;;;;;;5068617;28;20189;-45
2023/05/19 05:15:13;;;;;;;5.00;1.97;;;18.80;53.10;;;;;;5078568;28;20178;-44
2023/05/19 05:17:43;;;;;;;2.77;1.70;;;18.70;53.00;;;;;;5069275;28;20753;-46
2023/05/19 05:20:15;;;;;;;2.90;1.70;;;18.70;53.00;;;;;;5063743;28;20302;-45
2023/05/19 05:22:45;;;;;;;4.80;1.90;;;18.70;53.00;;;;;;5068797;28;20260;-46
2023/05/19 05:25:17;;;;;;;2.27;1.87;;;18.70;53.10;;;;;;5068232;28;20699;-45
2023/05/19 05:27:48;;;;;;;2.57;1.83;;;18.70;53.10;;;;;;5067711;28;20214;-45
2023/05/19 05:30:17;;;;;;;3.40;1.93;;;18.70;53.10;;;;;;5053204;28;20731;-44
2023/05/19 05:32:48;;;;;;;3.37;1.90;;;18.70;53.10;;;;;;5049075;28;20218;-44
2023/05/19 05:35:22;;;;;;;4.00;1.80;;;18.70;53.00;;;;;;5053331;28;20217;-43
2023/05/19 05:37:54;;;;;;;3.37;1.87;;;18.70;53.00;;;;;;5028584;28;20234;-45
2023/05/19 05:40:22;;;;;;;4.77;1.80;;;18.70;53.10;;;;;;5018168;28;20299;-44
2023/05/19 05:42:51;;;;;;;2.53;1.80;;;18.70;53.00;;;;;;5058102;28;20194;-44
2023/05/19 05:45:23;;;;;;;6.73;3.13;;;18.70;53.00;;;;;;5049145;28;20203;-44
2023/05/19 05:47:54;;;;;;;5.23;3.23;;;18.70;53.10;;;;;;5060773;28;20202;-44
2023/05/19 05:50:22;;;;;;;9.37;3.47;;;18.70;53.20;;;;;;5053699;28;20211;-43
2023/05/19 05:52:54;;;;;;;5.77;3.00;;;18.70;53.30;;;;;;5055946;28;20686;-43
2023/05/19 05:55:25;;;;;;;7.83;3.10;;;18.70;53.30;;;;;;5056729;28;20199;-44
2023/05/19 05:57:55;;;;;;;5.90;3.10;;;18.70;53.30;;;;;;5045076;28;20256;-44
2023/05/19 06:00:27;;;;;;;5.90;2.90;;;18.70;53.30;;;;;;5042916;28;20208;-44
2023/05/19 06:03:03;;;;;;;6.03;3.20;;;18.70;53.30;;;;;;5051186;28;20256;-44
2023/05/19 06:05:36;;;;;;;6.30;2.80;;;18.70;53.30;;;;;;5051791;28;20183;-44
2023/05/19 06:08:07;;;;;;;6.40;2.80;;;18.70;53.30;;;;;;5047100;28;20210;-43
2023/05/19 06:10:40;;;;;;;5.27;2.80;;;18.70;53.20;;;;;;5050669;28;20225;-43
2023/05/19 06:13:23;;;;;;;5.63;2.60;;;18.70;53.30;;;;;;5035838;28;20210;-44
2023/05/19 06:15:51;;;;;;;7.30;2.70;;;18.70;53.30;;;;;;5057293;28;20195;-43
2023/05/19 06:18:25;;;;;;;5.17;2.53;;;18.70;53.20;;;;;;5027536;28;20207;-43
2023/05/19 06:20:55;;;;;;;4.30;2.63;;;18.70;53.30;;;;;;5055913;28;20211;-44
2023/05/19 06:23:24;;;;;;;4.10;2.40;;;18.70;53.20;;;;;;5038403;28;20191;-44
2023/05/19 06:25:57;;;;;;;4.40;2.77;;;18.70;53.20;;;;;;5045724;28;20190;-43
2023/05/19 06:28:28;;;;;;;7.10;3.00;;;18.70;53.30;;;;;;5045784;28;20198;-43
2023/05/19 06:31:05;;;;;;;7.73;2.60;;;18.70;53.20;;;;;;5064129;28;20573;-44
2023/05/19 06:33:36;;;;;;;4.93;2.50;;;18.70;53.20;;;;;;5064653;28;20685;-44
2023/05/19 06:36:05;;;;;;;3.77;2.40;;;18.70;53.30;;;;;;5067957;28;20213;-44
2023/05/19 06:38:35;;;;;;;5.63;2.37;;;18.70;53.30;;;;;;5065225;28;20232;-44
2023/05/19 06:41:05;;;;;;;4.47;2.50;;;18.70;53.20;;;;;;5051513;28;20205;-44
2023/05/19 06:43:37;;;;;;;5.47;2.73;;;18.70;53.30;;;;;;5072818;28;20674;-44
2023/05/19 06:46:07;;;;;;;3.03;2.00;;;18.70;53.30;;;;;;5071295;28;20212;-44
2023/05/19 06:48:36;;;;;;;5.43;2.47;;;18.70;53.30;;;;;;5069844;28;20202;-44
2023/05/19 06:51:09;;;;;;;4.77;2.47;;;18.70;53.30;;;;;;5065998;28;20202;-43
2023/05/19 06:53:39;;;;;;;3.93;2.37;;;18.70;53.30;;;;;;5072992;28;20231;-43
2023/05/19 06:56:11;;;;;;;3.73;1.93;;;18.70;53.30;;;;;;5059012;28;20572;-43
2023/05/19 06:58:42;;;;;;;4.27;2.30;;;18.70;53.30;;;;;;5054805;28;20225;-43
2023/05/19 07:01:12;;;;;;;3.67;2.37;;;18.70;53.30;;;;;;5063761;28;20195;-44
2023/05/19 07:03:43;;;;;;;3.90;2.03;;;18.70;53.20;;;;;;5064949;28;20221;-44
2023/05/19 07:06:20;;;;;;;4.97;2.90;;;18.70;53.30;;;;;;5064723;28;20277;-43
2023/05/19 07:08:50;;;;;;;6.17;2.70;;;18.70;53.40;;;;;;5041302;28;20224;-43
2023/05/19 07:11:21;;;;;;;4.57;2.30;;;18.70;53.40;;;;;;5060171;28;20195;-43
2023/05/19 07:13:49;;;;;;;3.57;1.90;;;18.70;53.50;;;;;;5068788;28;20634;-43
2023/05/19 07:16:18;;;;;;;3.47;2.10;;;18.70;53.50;;;;;;5059128;28;20225;-45
2023/05/19 07:18:48;;;;;;;4.07;2.20;;;18.70;53.50;;;;;;5065251;28;20559;-44
2023/05/19 07:21:17;;;;;;;3.30;2.00;;;18.80;53.60;;;;;;5061487;28;20205;-43
2023/05/19 07:23:49;;;;;;;4.47;2.37;;;18.70;53.90;;;;;;5067064;28;20193;-43
2023/05/19 07:26:16;;;;;;;2.40;1.90;;;18.80;54.00;;;;;;5059610;28;20781;-43
2023/05/19 07:28:47;;;;;;;6.20;2.17;;;18.80;54.10;;;;;;5064833;28;20286;-43
2023/05/19 07:31:18;;;;;;;5.17;2.07;;;18.80;54.00;;;;;;5056344;28;20190;-44
2023/05/19 07:33:49;;;;;;;3.23;2.30;;;18.80;54.20;;;;;;5045477;28;20243;-44
2023/05/19 07:36:22;;;;;;;3.63;1.87;;;18.80;53.90;;;;;;5059956;28;20202;-44
2023/05/19 07:38:49;;;;;;;5.20;2.13;;;18.80;53.90;;;;;;5061839;28;20240;-44
2023/05/19 07:41:21;;;;;;;5.37;2.03;;;18.90;54.00;;;;;;5047074;28;20213;-43
2023/05/19 07:43:51;;;;;;;3.87;2.13;;;18.80;53.80;;;;;;5062347;28;20194;-43
2023/05/19 07:46:18;;;;;;;3.20;1.80;;;18.90;53.80;;;;;;5064369;28;20233;-45
2023/05/19 07:48:49;;;;;;;4.37;2.20;;;18.90;53.80;;;;;;5066574;28;20458;-46
2023/05/19 07:51:18;;;;;;;5.37;2.10;;;18.90;53.80;;;;;;5042877;28;20286;-44
2023/05/19 07:53:46;;;;;;;2.43;1.87;;;18.90;53.70;;;;;;5071146;28;20201;-45
2023/05/19 07:56:15;;;;;;;4.70;2.00;;;18.90;53.70;;;;;;5067501;28;20260;-44
2023/05/19 07:58:45;;;;;;;2.83;1.77;;;18.90;53.60;;;;;;5068247;28;20217;-44
2023/05/19 08:01:16;;;;;;;3.67;1.80;;;18.90;53.60;;;;;;5072676;28;20190;-44
2023/05/19 08:03:44;;;;;;;1.87;1.53;;;18.90;53.60;;;;;;5071223;28;20194;-44
2023/05/19 08:06:16;;;;;;;2.03;1.70;;;18.90;53.60;;;;;;5050404;28;20186;-45
2023/05/19 08:08:47;;;;;;;2.70;1.87;;;18.90;53.60;;;;;;5064727;28;20193;-44
2023/05/19 08:11:18;;;;;;;5.73;1.90;;;18.90;53.60;;;;;;5067438;28;20662;-44
2023/05/19 08:13:48;;;;;;;4.73;1.90;;;18.90;53.60;;;;;;5053997;28;20224;-44
2023/05/19 08:16:21;;;;;;;3.73;2.07;;;18.90;53.60;;;;;;5055334;28;20248;-44
2023/05/19 08:18:53;;;;;;;2.67;1.83;;;18.90;53.60;;;;;;5052304;28;20659;-45
2023/05/19 08:21:26;;;;;;;3.93;2.10;;;19.00;53.70;;;;;;5056074;28;20186;-45
2023/05/19 08:23:57;;;;;;;3.70;2.13;;;19.00;53.70;;;;;;5055955;28;20186;-44
2023/05/19 08:26:28;;;;;;;2.63;1.70;;;19.00;53.80;;;;;;5057614;28;20190;-44
2023/05/19 08:28:56;;;;;;;2.90;2.20;;;19.00;53.70;;;;;;5056628;28;20237;-44
2023/05/19 08:31:26;;;;;;;3.27;1.67;;;19.00;53.80;;;;;;5058550;28;20608;-44
2023/05/19 08:33:54;;;;;;;4.43;1.90;;;19.00;53.90;;;;;;5059152;28;20214;-44
2023/05/19 08:36:24;;;;;;;2.77;1.57;;;19.00;53.80;;;;;;5065906;28;20314;-43
2023/05/19 08:38:54;;;;;;;3.10;1.97;;;19.00;53.90;;;;;;5066911;28;20222;-43
2023/05/19 08:41:22;;;;;;;3.97;2.00;;;19.10;54.00;;;;;;5056557;28;20196;-45
2023/05/19 08:43:52;;;;;;;4.70;2.47;;;19.00;53.90;;;;;;5057908;28;20189;-45
2023/05/19 08:46:27;;;;;;;4.07;2.53;;;19.00;53.90;;;;;;5060157;28;20210;-44
2023/05/19 08:49:06;;;;;;;3.57;1.93;;;19.10;54.00;;;;;;5048714;28;20190;-44
2023/05/19 08:51:47;;;;;;;7.03;2.73;;;19.10;54.00;;;;;;5052945;28;20516;-43
2023/05/19 08:54:19;;;;;;;7.10;2.70;;;19.00;54.00;;;;;;5050041;28;20202;-44
2023/05/19 08:56:49;;;;;;;6.27;2.77;;;19.10;54.00;;;;;;5060455;28;20228;-44
2023/05/19 08:59:20;;;;;;;4.23;2.50;;;19.10;54.00;;;;;;5059285;28;20676;-44
2023/05/19 09:01:54;;;;;;;5.47;2.63;;;19.10;54.10;;;;;;5046912;28;20726;-44
2023/05/19 09:04:27;;;;;;;7.93;2.17;;;19.10;54.10;;;;;;5052936;28;20194;-43
2023/05/19 09:07:01;;;;;;;4.37;2.50;;;19.10;54.00;;;;;;5056778;28;20633;-44
2023/05/19 09:09:39;;;;;;;10.77;2.50;;;19.10;54.00;;;;;;5048896;28;20214;-44
2023/05/19 09:12:15;;;;;;;30.03;4.93;;;19.10;53.70;;;;;;5058637;28;20189;-44
2023/05/19 09:14:47;;;;;;;13.40;2.70;;;19.10;53.70;;;;;;5044648;28;20196;-44
2023/05/19 09:17:15;;;;;;;3.83;1.87;;;19.10;53.80;;;;;;5040969;28;20253;-44
2023/05/19 09:19:48;;;;;;;5.80;2.33;;;19.20;54.00;;;;;;5052224;28;20185;-44
2023/05/19 09:22:19;;;;;;;4.50;2.07;;;19.20;54.10;;;;;;5057206;28;20587;-43
2023/05/19 09:24:48;;;;;;;6.33;1.97;;;19.20;54.10;;;;;;5068952;28;20587;-43
2023/05/19 09:27:25;;;;;;;5.63;1.90;;;19.20;54.20;;;;;;5068005;28;20239;-44
2023/05/19 09:30:07;;;;;;;5.07;2.23;;;19.20;54.30;;;;;;5061329;28;20336;-43
2023/05/19 09:32:40;;;;;;;6.13;2.20;;;19.20;54.00;;;;;;5066336;28;20580;-44
2023/05/19 09:35:23;;;;;;;3.80;1.97;;;19.20;54.00;;;;;;5068559;28;20290;-43
2023/05/19 09:37:55;;;;;;;3.17;1.80;;;19.20;54.10;;;;;;5052780;28;20664;-43
2023/05/19 09:40:27;;;;;;;3.80;1.90;;;19.30;54.20;;;;;;5066359;28;20186;-43
2023/05/19 09:42:55;;;;;;;4.70;1.80;;;19.30;54.30;;;;;;5052131;28;20214;-43
2023/05/19 09:45:27;;;;;;;3.50;1.93;;;19.30;54.30;;;;;;5063901;28;20206;-44
2023/05/19 09:48:03;;;;;;;3.60;2.00;;;19.30;54.30;;;;;;5064494;28;20732;-44
2023/05/19 09:50:47;;;;;;;4.13;1.83;;;19.30;54.40;;;;;;5050682;28;20197;-44
2023/05/19 09:53:20;;;;;;;4.40;2.10;;;19.30;54.40;;;;;;5053766;28;20210;-43
2023/05/19 09:55:56;;;;;;;2.43;1.50;;;19.30;54.40;;;;;;5053201;28;20569;-43
2023/05/19 09:58:33;;;;;;;3.07;1.70;;;19.30;54.50;;;;;;5065163;28;20282;-43
2023/05/19 10:01:05;;;;;;;4.53;1.70;;;19.40;54.50;;;;;;5051526;28;20197;-43
2023/05/19 10:03:35;;;;;;;2.87;1.50;;;19.40;54.50;;;;;;5063777;28;20194;-44
2023/05/19 10:06:07;;;;;;;3.30;1.80;;;19.40;54.60;;;;;;5045828;28;20572;-44
2023/05/19 10:08:45;;;;;;;3.23;1.60;;;19.40;54.60;;;;;;5044473;28;20817;-44
2023/05/19 10:11:17;;;;;;;28.43;3.20;;;19.40;54.50;;;;;;5062593;28;20193;-43
2023/05/19 10:13:52;;;;;;;5.77;2.13;;;19.50;54.40;;;;;;5066560;28;20213;-43
2023/05/19 10:16:29;;;;;;;3.60;1.53;;;19.50;54.40;;;;;;5067957;28;20196;-45
2023/05/19 10:19:21;;;;;;;3.97;1.93;;;19.50;54.60;;;;;;5053740;28;20206;-44
2023/05/19 10:21:55;;;;;;;3.13;1.57;;;19.50;54.60;;;;;;5052989;28;20206;-43
2023/05/19 10:24:23;;;;;;;5.00;2.43;;;19.50;54.70;;;;;;5058933;28;20194;-43
2023/05/19 10:27:06;;;;;;;5.57;2.20;;;19.50;54.60;;;;;;5048464;28;20194;-44
2023/05/19 10:29:38;;;;;;;4.33;1.70;;;19.50;54.40;;;;;;5067374;28;20357;-44
2023/05/19 10:32:27;;;;;;;1.93;1.47;;;19.50;54.20;;;;;;5055660;28;20202;-43
2023/05/19 10:35:33;;;;;;;4.27;1.60;;;19.50;54.40;;;;;;5068258;28;20194;-43
2023/05/19 10:38:41;;;;;;;4.87;1.60;;;19.60;54.50;;;;;;5050767;28;20218;-43
2023/05/19 10:41:45;;;;;;;4.03;1.83;;;19.60;54.50;;;;;;5068281;28;20229;-44
2023/05/19 10:44:52;;;;;;;3.70;1.43;;;19.60;54.60;;;;;;5049443;28;20186;-44
2023/05/19 10:47:28;;;;;;;3.87;1.93;;;19.60;54.60;;;;;;5064405;28;20220;-43
2023/05/19 10:50:10;;;;;;;2.83;1.67;;;19.60;54.70;;;;;;5051489;28;20194;-43
2023/05/19 10:52:40;;;;;;;3.47;1.63;;;19.70;54.90;;;;;;5055563;28;20266;-44
2023/05/19 10:55:16;;;;;;;2.27;1.20;;;19.70;54.90;;;;;;5070974;28;20279;-44
2023/05/19 10:57:55;;;;;;;5.67;1.47;;;19.70;55.00;;;;;;5051721;28;20256;-44
2023/05/19 11:00:28;;;;;;;2.13;1.47;;;19.70;54.90;;;;;;5051657;28;20190;-43
2023/05/19 11:03:22;;;;;;;4.17;1.67;;;19.70;54.70;;;;;;5040886;28;20194;-43
2023/05/19 11:06:13;;;;;;;2.57;1.67;;;19.80;54.60;;;;;;5071287;28;20198;-43
2023/05/19 11:08:46;;;;;;;3.43;1.50;;;19.80;54.50;;;;;;5068794;28;20221;-44
2023/05/19 11:11:17;;;;;;;2.93;1.50;;;19.80;54.60;;;;;;5069722;28;20209;-44
2023/05/19 11:13:58;;;;;;;3.63;1.80;;;19.80;54.70;;;;;;5053640;28;20221;-44
2023/05/19 11:16:33;;;;;;;4.37;1.67;;;19.90;54.50;;;;;;5053323;28;20197;-43
2023/05/19 11:19:07;;;;;;;4.57;1.67;;;19.90;54.50;;;;;;5057102;28;20222;-43
2023/05/19 11:21:53;;;;;;;3.13;1.60;;;19.90;55.10;;;;;;5039759;28;20294;-44
2023/05/19 11:24:43;;;;;;;3.20;1.40;;;19.90;56.50;;;;;;5048678;28;20228;-44
2023/05/19 11:27:32;;;;;;;4.97;1.60;;;20.00;57.00;;;;;;5061087;28;20205;-44
2023/05/19 11:30:13;;;;;;;6.40;1.70;;;20.00;56.20;;;;;;5060299;28;20257;-44
2023/05/19 11:32:42;;;;;;;7.23;1.87;;;20.00;57.00;;;;;;5060430;28;20213;-44
2023/05/19 11:35:20;;;;;;;4.33;1.77;;;20.00;57.40;;;;;;5049336;28;20236;-43
2023/05/19 11:37:55;;;;;;;4.03;1.70;;;20.00;57.00;;;;;;5048294;28;20635;-43
2023/05/19 11:40:25;;;;;;;3.17;1.73;;;20.10;57.50;;;;;;5051813;28;20198;-44
2023/05/19 11:42:55;;;;;;;4.63;1.57;;;20.10;58.50;;;;;;5049353;28;20196;-44
2023/05/19 11:45:32;;;;;;;4.13;1.80;;;20.10;59.40;;;;;;5057090;28;20216;-44
2023/05/19 11:48:05;;;;;;;6.17;1.60;;;20.20;60.40;;;;;;5055479;28;20206;-44
2023/05/19 11:50:37;;;;;;;10.97;2.20;;;20.20;60.00;;;;;;5059026;28;20205;-44
2023/05/19 11:53:10;;;;;;;3.93;2.00;;;20.20;58.90;;;;;;5047422;28;20186;-44
2023/05/19 11:55:46;;;;;;;3.97;1.60;;;20.20;58.60;;;;;;5065065;28;20197;-44
2023/05/19 11:58:24;;;;;;;6.60;1.80;;;20.20;59.10;;;;;;5045486;28;20221;-43
2023/05/19 12:01:05;;;;;;;4.80;1.53;;;20.20;58.80;;;;;;5049727;28;20593;-44
2023/05/19 12:03:42;;;;;;;3.17;1.73;;;20.20;58.90;;;;;;5060071;28;20206;-44
2023/05/19 12:06:10;;;;;;;4.10;1.63;;;20.20;58.10;;;;;;5060290;28;20201;-43
2023/05/19 12:08:41;;;;;;;3.37;1.63;;;20.20;58.20;;;;;;5064522;28;20689;-44
2023/05/19 12:11:13;;;;;;;29.83;3.30;;;20.20;58.20;;;;;;5066246;28;20197;-44
2023/05/19 12:13:41;;;;;;;15.70;2.70;;;20.20;57.40;;;;;;5065047;28;20202;-44
2023/05/19 12:16:14;;;;;;;6.53;1.53;;;20.20;57.00;;;;;;5066423;28;20202;-43
2023/05/19 12:18:44;;;;;;;4.70;1.57;;;20.20;57.60;;;;;;5058848;28;20202;-43
2023/05/19 12:21:16;;;;;;;2.93;1.63;;;20.30;58.40;;;;;;5066393;28;20205;-45
2023/05/19 12:23:51;;;;;;;5.33;1.50;;;20.30;58.80;;;;;;5063380;28;20215;-44
2023/05/19 12:26:30;;;;;;;4.77;1.90;;;20.30;58.80;;;;;;5069672;28;20182;-44
2023/05/19 12:29:01;;;;;;;3.80;1.50;;;20.30;59.40;;;;;;5064506;28;20229;-44
2023/05/19 12:31:34;;;;;;;3.40;1.40;;;20.30;59.00;;;;;;5064838;28;20200;-44
2023/05/19 12:34:07;;;;;;;3.43;1.67;;;20.30;58.70;;;;;;5047465;28;20209;-44
2023/05/19 12:36:41;;;;;;;5.27;1.73;;;20.30;58.90;;;;;;5061194;28;20195;-44
2023/05/19 12:39:13;;;;;;;4.20;1.77;;;20.40;59.40;;;;;;5062853;28;20233;-44
2023/05/19 12:41:46;;;;;;;6.73;1.70;;;20.40;59.70;;;;;;5071167;28;20201;-45
2023/05/19 12:44:15;;;;;;;3.60;1.70;;;20.40;59.80;;;;;;5050789;28;20209;-45
2023/05/19 12:46:44;;;;;;;4.40;1.70;;;20.40;59.60;;;;;;5055398;28;20611;-44
2023/05/19 12:49:20;;;;;;;3.03;1.60;;;20.40;59.70;;;;;;5067709;28;20202;-44
2023/05/19 12:51:56;;;;;;;2.40;1.50;;;20.40;59.70;;;;;;5065680;28;20639;-45
2023/05/19 12:54:32;;;;;;;2.47;1.20;;;20.40;59.50;;;;;;5061269;28;20205;-45
2023/05/19 12:57:05;;;;;;;3.43;1.50;;;20.50;59.90;;;;;;5043847;28;20220;-45
2023/05/19 12:59:47;;;;;;;3.30;1.60;;;20.50;59.90;;;;;;5047924;28;20296;-45
2023/05/19 13:02:17;;;;;;;3.10;1.30;;;20.50;60.00;;;;;;5056879;28;20198;-45
2023/05/19 13:04:47;;;;;;;5.70;1.80;;;20.50;59.90;;;;;;5064745;28;20624;-45
2023/05/19 13:07:17;;;;;;;3.60;1.50;;;20.50;60.00;;;;;;5049110;28;20202;-43
2023/05/19 13:09:49;;;;;;;4.00;1.40;;;20.50;59.40;;;;;;5044407;28;20662;-43
2023/05/19 13:12:20;;;;;;;3.80;1.73;;;20.50;58.40;;;;;;5065866;28;20209;-44
2023/05/19 13:14:52;;;;;;;9.60;2.00;;;20.60;58.10;;;;;;5058036;28;20198;-44
2023/05/19 13:17:23;;;;;;;5.50;1.63;;;20.50;58.00;;;;;;5065471;28;20206;-45
2023/05/19 13:19:54;;;;;;;4.43;1.47;;;20.60;58.00;;;;;;5063773;28;20603;-45